Time;durP1;ratioP1;P1;durP2;ratioP2;P2;SDS_P1;SDS_P2;PMS_P1;PMS_P2;Temp;Humidity;BMP_temperature;BMP_pressure;BME280_temperature;BME280_humidity;BME280_pressure;Samples;Min_cycle;Max_cycle;Signal;HPM_P1;HPM_P2
2022/05/20 00:00:32;;;;;;;29.48;9.55;;;23.60;99.90;;;;;;4973086;28;20050;-54
2022/05/20 00:02:58;;;;;;;33.38;10.55;;;23.70;99.90;;;;;;4973854;28;20042;-51
2022/05/20 00:05:27;;;;;;;36.47;9.73;;;23.60;99.90;;;;;;4973923;28;20027;-57
2022/05/20 00:07:54;;;;;;;36.03;9.68;;;23.60;99.90;;;;;;4974671;28;20691;-65
2022/05/20 00:10:21;;;;;;;24.30;9.00;;;23.50;99.90;;;;;;4973387;28;20387;-64
2022/05/20 00:12:47;;;;;;;35.50;9.18;;;23.70;99.90;;;;;;4972450;28;20376;-51
2022/05/20 00:15:17;;;;;;;23.13;8.35;;;23.80;99.90;;;;;;4972082;28;20027;-59
2022/05/20 00:17:43;;;;;;;28.58;8.88;;;24.00;99.90;;;;;;4973843;28;20027;-60
2022/05/20 00:20:11;;;;;;;27.20;8.35;;;24.30;99.90;;;;;;4973133;28;20030;-53
2022/05/20 00:22:38;;;;;;;25.70;9.75;;;24.50;99.90;;;;;;4973697;28;20410;-55
2022/05/20 00:27:49;;;;;;;21.90;8.13;;;24.80;99.90;;;;;;4972614;28;20263;-60
2022/05/20 00:30:15;;;;;;;19.30;7.78;;;25.00;99.90;;;;;;4974142;28;20042;-57
2022/05/20 00:32:41;;;;;;;23.98;8.32;;;25.10;99.90;;;;;;4974539;28;20047;-56
2022/05/20 00:35:07;;;;;;;19.40;8.35;;;25.20;99.90;;;;;;4973834;28;20047;-61
2022/05/20 00:37:33;;;;;;;15.70;7.82;;;25.30;99.90;;;;;;4974451;28;20493;-60
2022/05/20 00:39:59;;;;;;;18.27;6.93;;;25.40;99.90;;;;;;4973524;28;20081;-53
2022/05/20 00:42:25;;;;;;;26.67;8.65;;;25.40;99.90;;;;;;4973752;28;20081;-55
2022/05/20 00:44:53;;;;;;;19.00;7.57;;;25.50;99.90;;;;;;4973601;28;20490;-60
2022/05/20 00:47:18;;;;;;;26.60;8.10;;;25.60;99.90;;;;;;4967481;28;20038;-56
2022/05/20 00:49:49;;;;;;;18.55;7.80;;;25.70;99.90;;;;;;4965497;28;20027;-51
2022/05/20 00:52:19;;;;;;;21.33;7.55;;;25.70;99.90;;;;;;4972604;28;20380;-50
2022/05/20 00:54:49;;;;;;;18.88;7.65;;;25.80;99.90;;;;;;4973524;28;20327;-55
2022/05/20 00:58:00;;;;;;;21.02;7.43;;;25.80;99.90;;;;;;4973693;28;20518;-53
2022/05/20 01:00:29;;;;;;;20.23;8.23;;;25.80;99.90;;;;;;4913379;29;20196;-54
2022/05/20 01:03:00;;;;;;;19.00;7.07;;;25.80;99.90;;;;;;4961142;28;20097;-55
2022/05/20 01:05:39;;;;;;;20.70;7.20;;;25.90;99.90;;;;;;4972277;28;20023;-48
2022/05/20 01:08:07;;;;;;;18.08;7.32;;;25.90;99.90;;;;;;4972304;28;20046;-49
2022/05/20 01:10:33;;;;;;;20.02;7.47;;;26.00;99.90;;;;;;4971667;28;20382;-51
2022/05/20 01:12:59;;;;;;;20.90;8.48;;;26.00;99.90;;;;;;4972456;28;20027;-61
2022/05/20 01:15:27;;;;;;;20.52;8.00;;;26.00;99.90;;;;;;4972540;28;20023;-60
2022/05/20 01:17:54;;;;;;;12.88;6.88;;;26.00;99.90;;;;;;4971869;28;20019;-55
2022/05/20 01:20:25;;;;;;;20.55;7.75;;;26.00;99.90;;;;;;4970442;28;20022;-59
2022/05/20 01:22:53;;;;;;;17.77;7.57;;;26.00;99.90;;;;;;4971898;28;20491;-54
2022/05/20 01:25:20;;;;;;;16.63;6.72;;;26.10;99.90;;;;;;4971999;28;20113;-52
2022/05/20 01:27:46;;;;;;;17.92;8.35;;;26.10;99.90;;;;;;4972542;28;20030;-54
2022/05/20 01:30:18;;;;;;;17.13;7.35;;;26.10;99.90;;;;;;4971383;28;20416;-53
2022/05/20 01:32:44;;;;;;;19.65;6.70;;;26.10;99.90;;;;;;4972928;28;20023;-62
2022/05/20 01:35:37;;;;;;;15.32;7.20;;;26.10;99.90;;;;;;4972684;28;20117;-54
2022/05/20 01:38:04;;;;;;;24.40;8.43;;;26.10;99.90;;;;;;4967514;28;20039;-52
2022/05/20 01:40:57;;;;;;;21.15;8.35;;;26.20;99.90;;;;;;4972534;28;20023;-57
2022/05/20 01:43:57;;;;;;;17.50;7.90;;;26.20;99.90;;;;;;4972358;28;20070;-57
2022/05/20 01:46:35;;;;;;;14.95;7.20;;;26.20;99.90;;;;;;4972259;28;20383;-55
2022/05/20 01:49:19;;;;;;;18.00;6.47;;;26.20;99.90;;;;;;4985902;28;20134;-54
2022/05/20 01:52:06;;;;;;;17.67;6.97;;;26.20;99.90;;;;;;4971734;28;20034;-55
2022/05/20 01:54:52;;;;;;;15.25;7.07;;;26.20;99.90;;;;;;4970507;28;20027;-55
2022/05/20 01:57:30;;;;;;;15.77;7.57;;;26.20;99.90;;;;;;4971323;28;20050;-58
2022/05/20 02:00:18;;;;;;;15.95;7.20;;;26.30;99.90;;;;;;4996353;23;20048;-58
2022/05/20 02:02:57;;;;;;;17.83;7.72;;;26.20;99.90;;;;;;5017451;28;20041;-59
2022/05/20 02:05:39;;;;;;;14.32;6.90;;;26.30;99.90;;;;;;5023055;28;20018;-56
2022/05/20 02:08:28;;;;;;;17.05;6.35;;;26.20;99.90;;;;;;5028519;28;20034;-56
2022/05/20 02:11:31;;;;;;;13.88;6.35;;;26.20;99.90;;;;;;5025824;28;20026;-56
2022/05/20 02:14:03;;;;;;;16.13;7.43;;;26.20;99.90;;;;;;4974449;28;20104;-56
2022/05/20 02:16:37;;;;;;;14.63;6.55;;;26.20;99.90;;;;;;5013071;28;20384;-56
2022/05/20 02:19:08;;;;;;;15.57;6.97;;;26.20;99.90;;;;;;5012920;28;20048;-56
2022/05/20 02:21:38;;;;;;;15.57;6.63;;;26.20;99.90;;;;;;5015941;28;20136;-57
2022/05/20 02:24:10;;;;;;;12.90;6.20;;;26.20;99.90;;;;;;5012910;28;20496;-57
2022/05/20 02:26:43;;;;;;;14.15;7.07;;;26.20;99.90;;;;;;5008499;28;20581;-56
2022/05/20 02:29:13;;;;;;;13.07;6.35;;;26.10;99.90;;;;;;5012541;28;20022;-55
2022/05/20 02:32:08;;;;;;;13.23;6.45;;;26.10;99.90;;;;;;5009920;28;20018;-57
2022/05/20 02:34:37;;;;;;;14.30;6.00;;;26.10;99.90;;;;;;5011898;28;20025;-56
2022/05/20 02:37:23;;;;;;;13.48;6.90;;;26.10;99.90;;;;;;5028023;28;20048;-55
2022/05/20 02:39:49;;;;;;;11.65;5.78;;;26.10;99.90;;;;;;5032030;28;20450;-56
2022/05/20 02:42:15;;;;;;;14.00;6.88;;;26.00;99.90;;;;;;5032995;28;20025;-56
2022/05/20 02:44:41;;;;;;;13.18;7.30;;;26.00;99.90;;;;;;5034352;28;20469;-56
2022/05/20 02:47:07;;;;;;;15.15;5.88;;;26.00;99.90;;;;;;5032072;28;20457;-56
2022/05/20 02:49:33;;;;;;;13.63;7.32;;;26.10;99.90;;;;;;5034431;28;20032;-56
2022/05/20 02:51:59;;;;;;;17.85;6.78;;;26.00;99.90;;;;;;5022739;28;20473;-55
2022/05/20 02:54:25;;;;;;;11.48;6.55;;;26.00;99.90;;;;;;5013095;28;20116;-56
2022/05/20 02:56:50;;;;;;;15.23;6.13;;;26.00;99.90;;;;;;5027110;28;20030;-55
2022/05/20 03:04:28;;;;;;;13.63;7.30;;;26.00;99.90;;;;;;5054186;28;20052;-58
2022/05/20 03:06:54;;;;;;;13.98;7.03;;;26.00;99.90;;;;;;5039948;28;20026;-58
2022/05/20 03:09:22;;;;;;;13.80;5.72;;;26.00;99.90;;;;;;5034858;28;20033;-58
2022/05/20 03:11:49;;;;;;;14.90;6.63;;;26.00;99.90;;;;;;5034089;28;20107;-58
2022/05/20 03:14:18;;;;;;;11.68;6.60;;;26.00;99.90;;;;;;5033834;28;20033;-56
2022/05/20 03:16:43;;;;;;;14.80;6.85;;;26.00;99.90;;;;;;5045576;28;20022;-57
2022/05/20 03:19:10;;;;;;;14.05;7.07;;;26.00;99.90;;;;;;5053510;28;20499;-57
2022/05/20 03:21:37;;;;;;;15.87;7.03;;;26.00;99.90;;;;;;5053562;28;20029;-56
2022/05/20 03:24:07;;;;;;;10.88;6.05;;;26.00;99.90;;;;;;5049142;28;20033;-56
2022/05/20 03:26:33;;;;;;;10.68;6.03;;;26.00;99.90;;;;;;5034524;28;20029;-56
2022/05/20 03:28:59;;;;;;;10.53;6.33;;;26.00;99.90;;;;;;5033529;28;20034;-56
2022/05/20 03:31:26;;;;;;;11.90;6.18;;;26.00;99.90;;;;;;5034410;28;20025;-56
2022/05/20 03:33:52;;;;;;;10.93;6.15;;;26.00;99.90;;;;;;5033513;28;20485;-57
2022/05/20 03:36:19;;;;;;;12.13;6.03;;;26.00;99.90;;;;;;5040329;28;20044;-56
2022/05/20 03:38:45;;;;;;;16.30;6.85;;;26.00;99.90;;;;;;5053399;28;20071;-57
2022/05/20 03:41:11;;;;;;;9.85;5.63;;;26.00;99.90;;;;;;5053349;28;20028;-56
2022/05/20 03:43:37;;;;;;;10.73;6.20;;;26.00;99.90;;;;;;5051225;28;20409;-56
2022/05/20 03:46:04;;;;;;;14.02;6.82;;;26.00;99.90;;;;;;5045765;28;20378;-57
2022/05/20 03:48:29;;;;;;;10.35;5.53;;;26.00;99.90;;;;;;5032541;28;20033;-58
2022/05/20 03:50:56;;;;;;;12.05;6.05;;;26.00;99.90;;;;;;5033131;28;20036;-58
2022/05/20 03:53:22;;;;;;;11.23;6.20;;;26.00;99.90;;;;;;5033348;28;20504;-58
2022/05/20 03:55:47;;;;;;;10.10;5.85;;;26.00;99.90;;;;;;5039131;28;20021;-58
2022/05/20 03:58:14;;;;;;;14.48;6.32;;;26.00;99.90;;;;;;5033988;28;20056;-57
2022/05/20 04:03:25;;;;;;;14.50;6.80;;;26.00;99.90;;;;;;5052981;28;20503;-58
2022/05/20 04:05:53;;;;;;;13.57;6.25;;;26.00;99.90;;;;;;5052360;28;20029;-58
2022/05/20 04:08:19;;;;;;;12.38;5.63;;;26.00;99.90;;;;;;5033223;28;20029;-57
2022/05/20 04:10:45;;;;;;;12.18;5.75;;;26.00;99.90;;;;;;5032822;28;20029;-58
2022/05/20 04:13:11;;;;;;;11.77;6.07;;;26.00;99.90;;;;;;5033831;28;20275;-58
2022/05/20 04:15:37;;;;;;;12.18;5.93;;;26.00;99.90;;;;;;5033820;28;20029;-58
2022/05/20 04:18:03;;;;;;;13.65;5.82;;;26.00;99.90;;;;;;5031504;28;20021;-58
2022/05/20 04:20:29;;;;;;;13.45;5.88;;;26.00;99.90;;;;;;5032459;28;20026;-59
2022/05/20 04:22:55;;;;;;;14.55;6.32;;;26.00;99.90;;;;;;5032277;28;20091;-58
2022/05/20 04:25:21;;;;;;;10.38;5.38;;;26.00;99.90;;;;;;5052121;28;20086;-57
2022/05/20 04:27:46;;;;;;;10.90;5.90;;;26.00;99.90;;;;;;5051143;28;20054;-59
2022/05/20 04:30:13;;;;;;;11.07;5.97;;;26.00;99.90;;;;;;5049262;28;20028;-58
2022/05/20 04:32:39;;;;;;;10.55;5.60;;;26.00;99.90;;;;;;5052238;28;20089;-57
2022/05/20 04:35:05;;;;;;;9.52;5.95;;;26.00;99.90;;;;;;5035300;28;20033;-59
2022/05/20 04:37:31;;;;;;;9.63;5.60;;;26.00;99.90;;;;;;5032264;28;20436;-58
2022/05/20 04:39:57;;;;;;;11.38;5.72;;;26.00;99.90;;;;;;5032229;28;20018;-57
2022/05/20 04:47:51;;;;;;;15.00;6.53;;;26.00;99.90;;;;;;5038145;28;20072;-58
2022/05/20 04:50:17;;;;;;;12.05;5.80;;;26.00;99.90;;;;;;5051909;28;20426;-58
2022/05/20 04:52:43;;;;;;;10.57;5.82;;;26.00;99.90;;;;;;5051921;28;20381;-58
2022/05/20 04:55:09;;;;;;;13.20;5.65;;;26.00;99.90;;;;;;5034706;28;20034;-58
2022/05/20 04:57:49;;;;;;;11.32;5.65;;;26.00;99.90;;;;;;5030512;28;20025;-58
2022/05/20 05:00:18;;;;;;;10.40;6.00;;;25.90;99.90;;;;;;5031822;28;20456;-58
2022/05/20 05:02:45;;;;;;;12.43;6.38;;;26.00;99.90;;;;;;5032947;28;20741;-58
2022/05/20 05:05:13;;;;;;;8.93;5.53;;;26.00;99.90;;;;;;5035805;28;20078;-60
2022/05/20 05:07:44;;;;;;;14.77;6.35;;;25.90;99.90;;;;;;5051558;28;20399;-58
2022/05/20 05:10:12;;;;;;;13.50;6.10;;;26.00;99.90;;;;;;5033169;28;20022;-57
2022/05/20 05:12:39;;;;;;;8.52;5.57;;;26.00;99.90;;;;;;5031713;28;20029;-57
2022/05/20 05:15:05;;;;;;;14.02;6.13;;;25.90;99.90;;;;;;5047219;28;20021;-58
2022/05/20 05:20:20;;;;;;;12.00;5.80;;;26.00;99.90;;;;;;5031687;28;20270;-56
2022/05/20 05:22:48;;;;;;;10.05;5.15;;;25.90;99.90;;;;;;5031483;28;20400;-56
2022/05/20 05:25:15;;;;;;;13.15;6.00;;;25.90;99.90;;;;;;5048915;28;20028;-56
2022/05/20 05:27:41;;;;;;;12.43;5.93;;;25.90;99.90;;;;;;5051255;28;20025;-56
2022/05/20 05:30:09;;;;;;;12.45;5.88;;;26.00;99.90;;;;;;5051459;28;20036;-56
2022/05/20 05:32:35;;;;;;;13.73;6.57;;;25.90;99.90;;;;;;5051095;28;20035;-57
2022/05/20 05:35:03;;;;;;;12.23;6.07;;;26.00;99.90;;;;;;5049310;28;20021;-56
2022/05/20 05:37:28;;;;;;;;;;;26.00;99.90;;;;;;5051515;28;20068;-56
2022/05/20 05:39:54;;;;;;;10.45;5.22;;;26.00;99.90;;;;;;5051211;28;20006;-55
2022/05/20 05:42:20;;;;;;;14.68;7.00;;;26.00;99.90;;;;;;5049672;28;20441;-56
2022/05/20 05:44:47;;;;;;;9.15;5.78;;;26.00;99.90;;;;;;5050426;28;20039;-55
2022/05/20 05:47:12;;;;;;;13.43;5.88;;;26.00;99.90;;;;;;5051054;28;20052;-55
2022/05/20 05:49:38;;;;;;;14.80;6.63;;;26.00;99.90;;;;;;5049302;28;20464;-56
2022/05/20 05:52:04;;;;;;;12.68;6.00;;;26.00;99.90;;;;;;5051025;28;20388;-58
2022/05/20 05:54:32;;;;;;;17.83;7.15;;;26.00;99.90;;;;;;5049179;28;20025;-58
2022/05/20 05:56:58;;;;;;;12.10;6.32;;;26.00;99.90;;;;;;5051119;28;20024;-58
2022/05/20 05:59:24;;;;;;;13.40;5.25;;;26.00;99.90;;;;;;5051038;28;20435;-57
2022/05/20 06:01:49;;;;;;;10.40;5.47;;;26.00;99.90;;;;;;5048950;28;20037;-59
2022/05/20 06:04:15;;;;;;;12.05;5.95;;;26.00;99.90;;;;;;5049029;28;20029;-58
2022/05/20 06:06:41;;;;;;;12.43;6.47;;;26.00;99.90;;;;;;5049263;28;20048;-58
2022/05/20 06:09:07;;;;;;;12.60;6.88;;;26.00;99.90;;;;;;5050792;28;20036;-56
2022/05/20 06:11:33;;;;;;;11.90;6.35;;;26.00;99.90;;;;;;5052794;28;20384;-57
2022/05/20 06:13:58;;;;;;;9.55;5.72;;;26.00;99.90;;;;;;5053219;28;20466;-57
2022/05/20 06:16:24;;;;;;;8.43;5.78;;;26.10;99.90;;;;;;5035082;28;20041;-58
2022/05/20 06:18:51;;;;;;;10.02;5.75;;;26.00;99.90;;;;;;5053717;28;20057;-58
2022/05/20 06:21:17;;;;;;;9.23;4.95;;;26.00;99.90;;;;;;5053647;28;20086;-59
2022/05/20 06:23:43;;;;;;;7.90;5.30;;;26.10;99.90;;;;;;5044561;28;20033;-59
2022/05/20 06:26:09;;;;;;;10.38;5.68;;;26.10;99.90;;;;;;5054642;28;20040;-59
2022/05/20 06:28:34;;;;;;;9.60;5.25;;;26.10;99.90;;;;;;5053392;28;20362;-58
2022/05/20 06:31:01;;;;;;;11.13;5.72;;;26.10;99.90;;;;;;5054570;28;20025;-58
2022/05/20 06:33:26;;;;;;;7.30;5.50;;;26.10;99.90;;;;;;5046655;28;20439;-58
2022/05/20 06:41:20;;;;;;;12.05;6.35;;;26.10;99.90;;;;;;5035464;28;20031;-58
2022/05/20 06:43:46;;;;;;;11.07;6.63;;;26.10;99.90;;;;;;5044928;28;20083;-58
2022/05/20 06:46:12;;;;;;;12.90;6.50;;;26.10;99.90;;;;;;5054062;28;20045;-58
2022/05/20 06:48:41;;;;;;;11.80;6.53;;;26.10;99.90;;;;;;5054242;28;20082;-58
2022/05/20 06:51:09;;;;;;;11.27;6.57;;;26.10;99.90;;;;;;5054047;28;20040;-58
2022/05/20 06:53:35;;;;;;;10.13;6.50;;;26.10;99.90;;;;;;5044797;28;20480;-58
2022/05/20 06:56:01;;;;;;;9.57;6.57;;;26.20;99.90;;;;;;5034337;28;20034;-58
2022/05/20 06:58:27;;;;;;;8.73;5.53;;;26.20;99.90;;;;;;5052953;28;20029;-57
2022/05/20 07:00:53;;;;;;;13.60;6.78;;;26.10;99.90;;;;;;5047678;28;20120;-56
2022/05/20 07:03:20;;;;;;;12.02;5.57;;;26.20;99.90;;;;;;5034147;28;20057;-56
2022/05/20 07:05:46;;;;;;;12.40;8.02;;;26.10;99.90;;;;;;5033930;28;20029;-57
2022/05/20 07:08:13;;;;;;;14.23;8.03;;;26.20;99.90;;;;;;5035009;28;20464;-57
2022/05/20 07:10:40;;;;;;;12.73;8.13;;;26.20;99.90;;;;;;5033863;28;20052;-56
2022/05/20 07:13:07;;;;;;;11.45;7.88;;;26.20;99.90;;;;;;5034805;28;20109;-56
2022/05/20 07:15:33;;;;;;;12.27;8.52;;;26.20;99.90;;;;;;5038940;28;20017;-56
2022/05/20 07:17:58;;;;;;;10.57;6.90;;;26.20;99.90;;;;;;5034024;28;20036;-57
2022/05/20 07:20:24;;;;;;;10.52;7.28;;;26.20;99.90;;;;;;5033705;28;20064;-58
2022/05/20 07:22:50;;;;;;;11.75;6.82;;;26.20;99.90;;;;;;5032620;28;20112;-57
2022/05/20 07:25:18;;;;;;;12.38;6.90;;;26.20;99.90;;;;;;5033430;28;20022;-56
2022/05/20 07:27:45;;;;;;;11.23;6.72;;;26.20;99.90;;;;;;5047777;28;20149;-56
2022/05/20 07:30:12;;;;;;;10.70;6.90;;;26.20;99.90;;;;;;5032150;28;20108;-56
2022/05/20 07:32:38;;;;;;;12.77;7.05;;;26.20;99.90;;;;;;5033147;28;20346;-56
2022/05/20 07:35:05;;;;;;;9.00;6.72;;;26.20;99.90;;;;;;5034553;28;20032;-57
2022/05/20 07:37:32;;;;;;;13.45;7.40;;;26.20;99.90;;;;;;5033481;28;20381;-57
2022/05/20 07:39:58;;;;;;;10.27;6.78;;;26.20;99.90;;;;;;5033311;28;20025;-56
2022/05/20 07:42:24;;;;;;;13.05;6.63;;;26.20;99.90;;;;;;5033258;28;20379;-57
2022/05/20 07:44:50;;;;;;;11.15;6.95;;;26.20;99.90;;;;;;5033104;28;20024;-56
2022/05/20 07:47:16;;;;;;;14.63;7.65;;;26.20;99.90;;;;;;5034081;28;20037;-57
2022/05/20 07:49:42;;;;;;;11.93;7.18;;;26.30;99.90;;;;;;5033273;28;20017;-58
2022/05/20 07:52:11;;;;;;;13.35;7.00;;;26.20;99.90;;;;;;5037758;28;20113;-56
2022/05/20 07:54:42;;;;;;;14.82;7.32;;;26.30;99.90;;;;;;5053008;28;20044;-56
2022/05/20 07:57:13;;;;;;;11.68;7.20;;;26.20;99.90;;;;;;5051231;28;20075;-56
2022/05/20 07:59:53;;;;;;;15.10;8.23;;;26.30;99.90;;;;;;5052728;28;20025;-56
2022/05/20 08:02:23;;;;;;;11.43;7.20;;;26.30;99.90;;;;;;5050836;28;20040;-56
2022/05/20 08:05:01;;;;;;;11.82;7.40;;;26.30;99.90;;;;;;5046024;28;20033;-56
2022/05/20 08:07:37;;;;;;;11.45;7.22;;;26.30;99.90;;;;;;5048363;28;20029;-56
2022/05/20 08:10:06;;;;;;;12.63;6.07;;;26.30;99.90;;;;;;5052859;28;20111;-57
2022/05/20 08:12:32;;;;;;;14.80;7.18;;;26.30;99.90;;;;;;5052815;28;20530;-57
2022/05/20 08:14:58;;;;;;;11.88;6.38;;;26.30;99.90;;;;;;5052216;28;20029;-56
2022/05/20 08:17:24;;;;;;;13.23;6.28;;;26.30;99.90;;;;;;5034973;28;20031;-57
2022/05/20 08:19:55;;;;;;;11.88;6.75;;;26.30;99.90;;;;;;5049036;28;20025;-57
2022/05/20 08:22:22;;;;;;;12.68;7.47;;;26.30;99.90;;;;;;5031769;28;20072;-57
2022/05/20 08:24:52;;;;;;;;;;;26.30;99.90;;;;;;5052824;28;20037;-57
2022/05/20 08:27:21;;;;;;;11.20;6.43;;;26.30;99.90;;;;;;5052333;28;19936;-57
2022/05/20 08:29:48;;;;;;;8.32;6.25;;;26.30;99.90;;;;;;5051805;28;20025;-57
2022/05/20 08:32:15;;;;;;;12.30;7.30;;;26.30;99.90;;;;;;5052230;28;20027;-57
2022/05/20 08:34:45;;;;;;;13.63;7.78;;;26.30;99.90;;;;;;5052191;28;20090;-57
2022/05/20 08:37:12;;;;;;;16.02;6.72;;;26.30;99.90;;;;;;5036913;28;20037;-57
2022/05/20 08:39:38;;;;;;;13.93;8.10;;;26.30;99.90;;;;;;5032230;28;20026;-58
2022/05/20 08:42:09;;;;;;;12.02;6.60;;;26.30;99.90;;;;;;5036303;28;20044;-57
2022/05/20 08:44:36;;;;;;;9.45;6.53;;;26.30;99.90;;;;;;5032118;28;20033;-56
2022/05/20 08:47:41;;;;;;;13.10;6.55;;;26.30;99.90;;;;;;5032940;28;20057;-56
2022/05/20 08:50:18;;;;;;;11.27;6.22;;;26.40;99.90;;;;;;5031562;28;20026;-56
2022/05/20 08:52:44;;;;;;;11.30;6.78;;;26.40;99.90;;;;;;5031835;28;20025;-57
2022/05/20 08:55:11;;;;;;;14.10;6.78;;;26.40;99.90;;;;;;5032771;28;20057;-56
2022/05/20 08:57:39;;;;;;;11.20;6.50;;;26.40;99.90;;;;;;5033100;28;20033;-56
2022/05/20 09:00:10;;;;;;;14.70;7.03;;;26.40;99.90;;;;;;5038714;28;20462;-56
2022/05/20 09:02:37;;;;;;;12.40;6.95;;;26.40;99.90;;;;;;5045779;28;20385;-62
2022/05/20 09:05:24;;;;;;;15.07;6.68;;;26.40;99.90;;;;;;5030435;28;20435;-56
2022/05/20 09:08:03;;;;;;;11.98;6.80;;;26.40;99.90;;;;;;5039999;28;20044;-57
2022/05/20 09:10:38;;;;;;;15.32;6.85;;;26.50;99.90;;;;;;5051330;28;21000;-57
2022/05/20 09:13:19;;;;;;;12.07;6.57;;;26.50;99.90;;;;;;5051636;28;20017;-57
2022/05/20 09:16:00;;;;;;;12.02;6.20;;;26.50;99.90;;;;;;5044316;28;20022;-57
2022/05/20 09:18:31;;;;;;;11.05;6.22;;;26.50;99.90;;;;;;5036721;28;20021;-57
2022/05/20 09:20:58;;;;;;;13.57;7.00;;;26.50;99.90;;;;;;5039031;28;20033;-57
2022/05/20 09:23:25;;;;;;;11.05;6.30;;;26.50;99.90;;;;;;5042027;28;20063;-58
2022/05/20 09:26:04;;;;;;;10.57;6.77;;;26.50;99.90;;;;;;5046045;28;20033;-57
2022/05/20 09:28:36;;;;;;;12.38;7.35;;;26.60;99.90;;;;;;5041479;28;20025;-56
2022/05/20 09:31:16;;;;;;;22.70;8.50;;;26.50;99.90;;;;;;5039234;28;20022;-56
2022/05/20 09:34:14;;;;;;;25.25;8.77;;;26.50;99.90;;;;;;5032355;28;20135;-59
2022/05/20 09:37:00;;;;;;;20.88;7.65;;;26.50;99.90;;;;;;5010130;28;20068;-62
2022/05/20 09:39:33;;;;;;;27.50;7.70;;;26.40;99.90;;;;;;5033743;28;20029;-56
2022/05/20 09:42:07;;;;;;;22.95;10.15;;;26.40;99.90;;;;;;5034704;28;20029;-62
2022/05/20 09:45:00;;;;;;;26.35;8.80;;;26.40;99.90;;;;;;5057216;28;20036;-62
2022/05/20 09:47:46;;;;;;;25.85;8.45;;;26.40;99.90;;;;;;5037950;28;20032;-62
2022/05/20 09:50:27;;;;;;;27.75;8.68;;;26.40;99.90;;;;;;5032112;28;20029;-62
2022/05/20 09:53:04;;;;;;;20.25;9.73;;;26.30;99.90;;;;;;5031263;28;20440;-62
2022/05/20 09:55:38;;;;;;;32.72;9.75;;;26.40;99.90;;;;;;5032250;28;20022;-62
2022/05/20 09:58:27;;;;;;;33.40;10.13;;;26.40;99.90;;;;;;5037685;28;20028;-59
2022/05/20 10:01:06;;;;;;;26.50;11.00;;;26.30;99.90;;;;;;5037450;28;20045;-62
2022/05/20 10:03:34;;;;;;;23.40;10.13;;;26.30;99.90;;;;;;5045830;28;20463;-58
2022/05/20 10:06:18;;;;;;;24.20;9.05;;;26.30;99.90;;;;;;5051099;28;20025;-58
2022/05/20 10:08:56;;;;;;;25.88;9.00;;;26.40;99.90;;;;;;5041386;28;20109;-57
2022/05/20 10:11:38;;;;;;;20.33;7.72;;;26.40;99.90;;;;;;5030954;28;20022;-57
2022/05/20 10:14:14;;;;;;;16.65;7.07;;;26.40;99.90;;;;;;5047995;28;20072;-58
2022/05/20 10:17:09;;;;;;;19.40;7.70;;;26.40;99.90;;;;;;5049254;28;20095;-57
2022/05/20 10:20:03;;;;;;;22.80;6.10;;;26.50;99.90;;;;;;5050832;28;20103;-57
2022/05/20 10:22:39;;;;;;;20.35;7.03;;;26.50;99.90;;;;;;5050610;28;20120;-58
2022/05/20 10:25:31;;;;;;;22.55;6.60;;;26.50;99.90;;;;;;5050620;28;20025;-56
2022/05/20 10:34:16;;;;;;;31.17;7.93;;;26.70;99.90;;;;;;5043423;28;20079;-61
2022/05/20 10:36:51;;;;;;;22.60;7.50;;;26.70;99.90;;;;;;5036364;28;20026;-60
2022/05/20 10:39:58;;;;;;;18.38;6.35;;;26.70;99.90;;;;;;5030638;28;20099;-59
2022/05/20 10:42:33;;;;;;;18.92;7.40;;;26.70;99.90;;;;;;5030644;28;20053;-60
2022/05/20 10:51:25;;;;;;;20.13;8.13;;;26.80;99.90;;;;;;5030952;28;20036;-60
2022/05/20 10:53:50;;;;;;;;;;;26.80;99.90;;;;;;5031140;28;20509;-61
2022/05/20 10:56:42;;;;;;;16.65;6.13;;;26.80;99.90;;;;;;5030660;28;19905;-61
2022/05/20 10:59:39;;;;;;;22.42;8.07;;;26.80;99.90;;;;;;4995812;28;20030;-61
2022/05/20 11:02:16;;;;;;;13.00;6.05;;;26.90;99.90;;;;;;5034112;28;20512;-61
2022/05/20 11:05:09;;;;;;;14.38;5.80;;;26.90;99.90;;;;;;5033130;28;20029;-61
2022/05/20 11:07:44;;;;;;;17.20;6.20;;;26.90;99.90;;;;;;5033919;28;20039;-61
2022/05/20 11:10:15;;;;;;;15.73;6.45;;;26.90;99.90;;;;;;5034160;28;20036;-61
2022/05/20 11:13:14;;;;;;;14.60;6.20;;;26.90;99.90;;;;;;5033945;28;20026;-61
2022/05/20 11:16:01;;;;;;;20.42;6.65;;;27.00;99.90;;;;;;5033745;28;20040;-61
2022/05/20 11:18:38;;;;;;;14.55;5.70;;;27.00;99.90;;;;;;5033753;28;20025;-61
2022/05/20 11:21:19;;;;;;;19.00;7.13;;;27.00;99.90;;;;;;5033597;28;20546;-61
2022/05/20 11:23:57;;;;;;;16.63;6.45;;;27.00;99.90;;;;;;5033962;28;20037;-60
2022/05/20 11:26:41;;;;;;;16.48;6.75;;;27.10;99.90;;;;;;5033615;28;20056;-61
2022/05/20 11:29:21;;;;;;;14.40;6.28;;;27.10;99.90;;;;;;5033476;28;20029;-58
2022/05/20 11:31:56;;;;;;;14.93;6.40;;;27.10;99.90;;;;;;5033313;28;20109;-59
2022/05/20 11:34:22;;;;;;;17.42;7.15;;;27.10;99.90;;;;;;5035181;28;20065;-62
2022/05/20 11:36:49;;;;;;;18.42;5.88;;;27.10;99.90;;;;;;5037961;28;20049;-62
2022/05/20 11:39:45;;;;;;;19.92;6.68;;;27.10;99.90;;;;;;5053101;28;20491;-57
2022/05/20 11:42:30;;;;;;;21.95;6.35;;;27.10;99.90;;;;;;5047645;28;20021;-56
2022/05/20 11:45:11;;;;;;;19.55;7.05;;;27.20;99.90;;;;;;5033144;28;20390;-56
2022/05/20 11:48:04;;;;;;;16.75;5.68;;;27.20;99.90;;;;;;5046024;28;20472;-57
2022/05/20 11:51:08;;;;;;;18.90;7.07;;;27.10;99.90;;;;;;5053261;28;20446;-57
2022/05/20 11:54:00;;;;;;;24.40;9.18;;;27.10;99.90;;;;;;5047373;28;20032;-59
2022/05/20 11:56:39;;;;;;;32.75;18.75;;;27.20;99.90;;;;;;4999921;28;20119;-57
2022/05/20 11:59:17;;;;;;;28.27;11.45;;;27.20;99.90;;;;;;5049469;28;20014;-53
2022/05/20 12:01:50;;;;;;;27.02;12.27;;;27.20;99.90;;;;;;5034067;28;20399;-53
2022/05/20 12:04:19;;;;;;;30.00;12.23;;;27.20;99.90;;;;;;5032492;28;20033;-56
2022/05/20 12:07:09;;;;;;;30.48;9.95;;;27.20;99.90;;;;;;5032620;28;20075;-56
2022/05/20 12:09:48;;;;;;;20.98;10.45;;;27.20;99.90;;;;;;5031558;28;20441;-60
2022/05/20 12:12:29;;;;;;;31.42;12.05;;;27.30;99.90;;;;;;5033205;28;20026;-57
2022/05/20 12:15:04;;;;;;;24.55;9.23;;;27.30;99.90;;;;;;5042373;28;20078;-59
2022/05/20 12:17:36;;;;;;;21.83;8.55;;;27.30;99.90;;;;;;5039696;28;20020;-57
2022/05/20 12:26:00;;;;;;;19.30;5.70;;;27.40;99.90;;;;;;5032183;28;20028;-58
2022/05/20 12:28:26;;;;;;;18.52;5.97;;;27.40;99.90;;;;;;5039912;28;20465;-58
2022/05/20 12:31:12;;;;;;;18.58;6.93;;;27.40;99.90;;;;;;5044325;28;20032;-58
2022/05/20 12:34:06;;;;;;;21.77;8.93;;;27.40;99.90;;;;;;5033364;28;20489;-56
2022/05/20 12:36:31;;;;;;;25.40;7.65;;;27.40;99.90;;;;;;5041787;28;20403;-56
2022/05/20 12:39:06;;;;;;;20.48;7.93;;;27.40;99.90;;;;;;5035657;28;20014;-58
2022/05/20 12:41:43;;;;;;;18.73;6.38;;;27.50;99.90;;;;;;5031703;28;20028;-58
2022/05/20 12:44:20;;;;;;;18.20;5.73;;;27.40;99.90;;;;;;5031516;28;20404;-59
2022/05/20 12:47:04;;;;;;;15.32;5.80;;;27.50;99.90;;;;;;5041396;28;20100;-53
2022/05/20 12:49:48;;;;;;;19.17;6.65;;;27.50;99.90;;;;;;5036203;28;20021;-57
2022/05/20 12:52:26;;;;;;;15.10;5.55;;;27.50;99.90;;;;;;5031346;28;20021;-56
2022/05/20 12:54:56;;;;;;;;;;;27.60;99.90;;;;;;5039448;28;20025;-52
2022/05/20 12:57:26;;;;;;;16.77;5.53;;;27.60;99.90;;;;;;5042041;28;19915;-55
2022/05/20 13:00:12;;;;;;;22.30;5.47;;;27.60;99.90;;;;;;5041268;28;20053;-55
2022/05/20 13:02:41;;;;;;;14.13;5.72;;;27.60;99.90;;;;;;5031210;28;20491;-61
2022/05/20 13:05:15;;;;;;;19.65;5.50;;;27.60;99.90;;;;;;5031157;28;20036;-60
2022/05/20 13:07:43;;;;;;;18.00;6.45;;;27.60;99.90;;;;;;5040658;28;20025;-59
2022/05/20 13:10:26;;;;;;;;;;;27.70;99.90;;;;;;5044889;28;20520;-57
2022/05/20 13:12:54;;;;;;;17.50;6.25;;;27.70;99.90;;;;;;5031322;28;19905;-61
2022/05/20 13:15:21;;;;;;;19.48;5.97;;;27.70;99.90;;;;;;5030995;28;20030;-59
2022/05/20 13:18:01;;;;;;;19.77;6.30;;;27.70;99.90;;;;;;5040615;28;20523;-60
2022/05/20 13:20:31;;;;;;;16.50;5.43;;;27.70;99.90;;;;;;5043942;28;20035;-60
2022/05/20 13:23:03;;;;;;;20.30;5.78;;;27.70;99.90;;;;;;5043426;28;20550;-58
2022/05/20 13:25:29;;;;;;;17.70;5.60;;;27.70;99.90;;;;;;5046703;28;20036;-60
2022/05/20 13:27:55;;;;;;;23.77;5.18;;;27.70;99.90;;;;;;5041455;28;20345;-58
2022/05/20 13:30:25;;;;;;;19.50;7.18;;;27.70;99.90;;;;;;5047011;28;20543;-60
2022/05/20 13:32:51;;;;;;;17.02;7.47;;;27.70;99.90;;;;;;5046511;28;20060;-61
2022/05/20 13:35:18;;;;;;;20.63;7.20;;;27.70;99.90;;;;;;5036764;28;20092;-59
2022/05/20 13:37:50;;;;;;;17.65;5.68;;;27.70;99.90;;;;;;5032187;28;20030;-57
2022/05/20 13:40:27;;;;;;;18.85;6.13;;;27.70;99.90;;;;;;5030633;28;20176;-59
2022/05/20 13:42:55;;;;;;;20.80;6.78;;;27.70;99.90;;;;;;5030227;28;20034;-60
2022/05/20 13:51:07;;;;;;;26.70;6.45;;;27.70;99.90;;;;;;5040965;28;20024;-63